sensor_id;sensor_type;location;lat;lon;timestamp;P1;durP1;ratioP1;P2;durP2;ratioP2
61938;SDS011;47897;50.322;18.892;2023-02-28T00:01:08;35.80;;;17.60;;
61938;SDS011;47897;50.322;18.892;2023-02-28T00:03:35;41.00;;;18.80;;
61938;SDS011;47897;50.322;18.892;2023-02-28T00:06:04;40.80;;;20.00;;
61938;SDS011;47897;50.322;18.892;2023-02-28T00:08:31;43.00;;;18.40;;
61938;SDS011;47897;50.322;18.892;2023-02-28T00:11:06;34.90;;;16.40;;
61938;SDS011;47897;50.322;18.892;2023-02-28T00:13:37;37.90;;;16.10;;
61938;SDS011;47897;50.322;18.892;2023-02-28T00:16:05;35.40;;;16.30;;
61938;SDS011;47897;50.322;18.892;2023-02-28T00:18:32;35.20;;;16.10;;
61938;SDS011;47897;50.322;18.892;2023-02-28T00:20:59;33.70;;;15.80;;
61938;SDS011;47897;50.322;18.892;2023-02-28T00:23:26;33.40;;;15.80;;
61938;SDS011;47897;50.322;18.892;2023-02-28T00:25:53;41.80;;;17.40;;
61938;SDS011;47897;50.322;18.892;2023-02-28T00:28:20;32.40;;;15.80;;
61938;SDS011;47897;50.322;18.892;2023-02-28T00:30:47;32.30;;;15.90;;
61938;SDS011;47897;50.322;18.892;2023-02-28T00:33:13;36.50;;;15.70;;
61938;SDS011;47897;50.322;18.892;2023-02-28T00:35:40;35.50;;;16.60;;
61938;SDS011;47897;50.322;18.892;2023-02-28T00:38:07;32.40;;;15.60;;
61938;SDS011;47897;50.322;18.892;2023-02-28T00:40:34;29.50;;;14.90;;
61938;SDS011;47897;50.322;18.892;2023-02-28T00:43:00;37.00;;;15.10;;
61938;SDS011;47897;50.322;18.892;2023-02-28T00:45:27;36.70;;;15.10;;
61938;SDS011;47897;50.322;18.892;2023-02-28T00:47:54;31.90;;;15.70;;
61938;SDS011;47897;50.322;18.892;2023-02-28T00:50:20;33.80;;;15.30;;
61938;SDS011;47897;50.322;18.892;2023-02-28T00:52:47;33.10;;;14.70;;
61938;SDS011;47897;50.322;18.892;2023-02-28T00:55:14;32.30;;;15.50;;
61938;SDS011;47897;50.322;18.892;2023-02-28T00:57:41;29.80;;;14.50;;
61938;SDS011;47897;50.322;18.892;2023-02-28T01:00:08;34.00;;;15.50;;
61938;SDS011;47897;50.322;18.892;2023-02-28T01:02:34;30.00;;;13.90;;
61938;SDS011;47897;50.322;18.892;2023-02-28T01:05:01;34.10;;;14.20;;
61938;SDS011;47897;50.322;18.892;2023-02-28T01:07:28;30.20;;;15.10;;
61938;SDS011;47897;50.322;18.892;2023-02-28T01:09:54;35.00;;;14.90;;
61938;SDS011;47897;50.322;18.892;2023-02-28T01:12:21;34.10;;;16.00;;
61938;SDS011;47897;50.322;18.892;2023-02-28T01:14:48;30.90;;;15.80;;
61938;SDS011;47897;50.322;18.892;2023-02-28T01:17:14;33.30;;;15.60;;
61938;SDS011;47897;50.322;18.892;2023-02-28T01:19:41;45.90;;;15.80;;
61938;SDS011;47897;50.322;18.892;2023-02-28T01:22:08;28.50;;;13.70;;
61938;SDS011;47897;50.322;18.892;2023-02-28T01:24:34;30.40;;;14.90;;
61938;SDS011;47897;50.322;18.892;2023-02-28T01:27:01;35.20;;;16.40;;
61938;SDS011;47897;50.322;18.892;2023-02-28T01:29:27;31.90;;;14.40;;
61938;SDS011;47897;50.322;18.892;2023-02-28T01:31:54;29.10;;;14.80;;
61938;SDS011;47897;50.322;18.892;2023-02-28T01:34:21;31.80;;;16.50;;
61938;SDS011;47897;50.322;18.892;2023-02-28T01:36:47;32.40;;;14.80;;
61938;SDS011;47897;50.322;18.892;2023-02-28T01:39:14;31.10;;;14.30;;
61938;SDS011;47897;50.322;18.892;2023-02-28T01:41:41;29.20;;;15.20;;
61938;SDS011;47897;50.322;18.892;2023-02-28T01:46:53;29.60;;;15.00;;
61938;SDS011;47897;50.322;18.892;2023-02-28T01:49:19;27.70;;;14.90;;
61938;SDS011;47897;50.322;18.892;2023-02-28T01:51:47;32.60;;;15.50;;
61938;SDS011;47897;50.322;18.892;2023-02-28T01:54:18;29.70;;;14.20;;
61938;SDS011;47897;50.322;18.892;2023-02-28T01:56:49;35.00;;;14.80;;
61938;SDS011;47897;50.322;18.892;2023-02-28T01:59:22;29.30;;;14.20;;
61938;SDS011;47897;50.322;18.892;2023-02-28T02:01:50;32.30;;;15.10;;
61938;SDS011;47897;50.322;18.892;2023-02-28T02:04:16;35.30;;;16.10;;
61938;SDS011;47897;50.322;18.892;2023-02-28T02:06:44;35.30;;;15.10;;
61938;SDS011;47897;50.322;18.892;2023-02-28T02:09:12;32.90;;;15.40;;
61938;SDS011;47897;50.322;18.892;2023-02-28T02:11:39;31.80;;;14.70;;
61938;SDS011;47897;50.322;18.892;2023-02-28T02:22:37;26.00;;;13.10;;
61938;SDS011;47897;50.322;18.892;2023-02-28T02:25:14;28.30;;;14.00;;
61938;SDS011;47897;50.322;18.892;2023-02-28T02:32:47;39.30;;;14.60;;
61938;SDS011;47897;50.322;18.892;2023-02-28T02:35:27;27.40;;;14.70;;
61938;SDS011;47897;50.322;18.892;2023-02-28T02:38:08;26.30;;;13.80;;
61938;SDS011;47897;50.322;18.892;2023-02-28T02:40:41;26.30;;;12.90;;
61938;SDS011;47897;50.322;18.892;2023-02-28T02:43:13;25.30;;;13.30;;
61938;SDS011;47897;50.322;18.892;2023-02-28T02:48:09;27.50;;;13.10;;
61938;SDS011;47897;50.322;18.892;2023-02-28T02:50:47;25.30;;;13.10;;
61938;SDS011;47897;50.322;18.892;2023-02-28T02:53:15;23.10;;;12.40;;
61938;SDS011;47897;50.322;18.892;2023-02-28T02:55:44;23.00;;;11.30;;
61938;SDS011;47897;50.322;18.892;2023-02-28T02:58:16;22.50;;;12.90;;
61938;SDS011;47897;50.322;18.892;2023-02-28T03:00:45;22.90;;;11.20;;
61938;SDS011;47897;50.322;18.892;2023-02-28T03:03:13;27.60;;;13.10;;
61938;SDS011;47897;50.322;18.892;2023-02-28T03:05:47;25.50;;;13.10;;
61938;SDS011;47897;50.322;18.892;2023-02-28T03:08:14;25.80;;;13.60;;
61938;SDS011;47897;50.322;18.892;2023-02-28T03:10:42;26.10;;;12.30;;
61938;SDS011;47897;50.322;18.892;2023-02-28T03:13:31;28.10;;;12.60;;
61938;SDS011;47897;50.322;18.892;2023-02-28T03:18:54;22.80;;;11.10;;
61938;SDS011;47897;50.322;18.892;2023-02-28T03:26:21;25.10;;;14.20;;
61938;SDS011;47897;50.322;18.892;2023-02-28T03:28:55;23.00;;;11.40;;
61938;SDS011;47897;50.322;18.892;2023-02-28T03:31:32;27.20;;;11.90;;
61938;SDS011;47897;50.322;18.892;2023-02-28T03:36:27;28.90;;;13.80;;
61938;SDS011;47897;50.322;18.892;2023-02-28T03:38:59;26.30;;;13.60;;
61938;SDS011;47897;50.322;18.892;2023-02-28T03:41:52;27.40;;;13.00;;
61938;SDS011;47897;50.322;18.892;2023-02-28T03:44:22;27.10;;;13.50;;
61938;SDS011;47897;50.322;18.892;2023-02-28T03:46:53;26.60;;;14.20;;
61938;SDS011;47897;50.322;18.892;2023-02-28T03:49:22;25.40;;;14.20;;
61938;SDS011;47897;50.322;18.892;2023-02-28T03:51:50;25.50;;;13.50;;
61938;SDS011;47897;50.322;18.892;2023-02-28T03:54:25;28.10;;;14.40;;
61938;SDS011;47897;50.322;18.892;2023-02-28T03:56:56;28.40;;;14.20;;
61938;SDS011;47897;50.322;18.892;2023-02-28T03:59:32;26.10;;;14.70;;
61938;SDS011;47897;50.322;18.892;2023-02-28T04:02:00;24.50;;;13.10;;
61938;SDS011;47897;50.322;18.892;2023-02-28T04:04:27;26.20;;;14.70;;
61938;SDS011;47897;50.322;18.892;2023-02-28T04:07:00;21.30;;;12.30;;
61938;SDS011;47897;50.322;18.892;2023-02-28T04:09:28;29.10;;;14.70;;
61938;SDS011;47897;50.322;18.892;2023-02-28T04:11:54;29.10;;;15.30;;
61938;SDS011;47897;50.322;18.892;2023-02-28T04:14:22;27.70;;;14.10;;
61938;SDS011;47897;50.322;18.892;2023-02-28T04:16:49;28.50;;;14.30;;
61938;SDS011;47897;50.322;18.892;2023-02-28T04:19:17;27.20;;;15.10;;
61938;SDS011;47897;50.322;18.892;2023-02-28T04:21:45;28.10;;;14.90;;
61938;SDS011;47897;50.322;18.892;2023-02-28T04:24:13;27.10;;;15.00;;
61938;SDS011;47897;50.322;18.892;2023-02-28T04:26:46;24.40;;;14.10;;
61938;SDS011;47897;50.322;18.892;2023-02-28T04:29:14;27.80;;;14.00;;
61938;SDS011;47897;50.322;18.892;2023-02-28T04:31:44;27.50;;;14.90;;
61938;SDS011;47897;50.322;18.892;2023-02-28T04:34:10;27.50;;;14.50;;
61938;SDS011;47897;50.322;18.892;2023-02-28T04:36:37;29.00;;;15.00;;
61938;SDS011;47897;50.322;18.892;2023-02-28T04:39:03;26.70;;;15.10;;
61938;SDS011;47897;50.322;18.892;2023-02-28T04:41:30;26.50;;;13.00;;
61938;SDS011;47897;50.322;18.892;2023-02-28T04:43:57;26.20;;;13.80;;
61938;SDS011;47897;50.322;18.892;2023-02-28T04:46:23;29.20;;;15.60;;
61938;SDS011;47897;50.322;18.892;2023-02-28T04:48:50;35.30;;;16.10;;
61938;SDS011;47897;50.322;18.892;2023-02-28T04:51:18;35.80;;;17.30;;
61938;SDS011;47897;50.322;18.892;2023-02-28T04:53:45;30.90;;;15.70;;
61938;SDS011;47897;50.322;18.892;2023-02-28T04:56:13;38.20;;;18.00;;
61938;SDS011;47897;50.322;18.892;2023-02-28T04:58:41;38.40;;;17.40;;
61938;SDS011;47897;50.322;18.892;2023-02-28T05:03:54;44.90;;;19.80;;
61938;SDS011;47897;50.322;18.892;2023-02-28T05:06:22;41.80;;;19.20;;
61938;SDS011;47897;50.322;18.892;2023-02-28T05:08:50;39.10;;;19.10;;
61938;SDS011;47897;50.322;18.892;2023-02-28T05:11:26;50.00;;;21.50;;
61938;SDS011;47897;50.322;18.892;2023-02-28T05:13:55;42.50;;;20.40;;
61938;SDS011;47897;50.322;18.892;2023-02-28T05:16:22;48.80;;;21.20;;
61938;SDS011;47897;50.322;18.892;2023-02-28T05:18:48;42.90;;;20.80;;
61938;SDS011;47897;50.322;18.892;2023-02-28T05:23:51;42.60;;;20.70;;
61938;SDS011;47897;50.322;18.892;2023-02-28T05:26:19;41.70;;;21.00;;
61938;SDS011;47897;50.322;18.892;2023-02-28T05:28:45;43.30;;;20.50;;
61938;SDS011;47897;50.322;18.892;2023-02-28T05:31:12;40.90;;;20.30;;
61938;SDS011;47897;50.322;18.892;2023-02-28T05:33:39;47.70;;;21.50;;
61938;SDS011;47897;50.322;18.892;2023-02-28T05:36:06;41.60;;;21.70;;
61938;SDS011;47897;50.322;18.892;2023-02-28T05:38:33;47.40;;;23.30;;
61938;SDS011;47897;50.322;18.892;2023-02-28T05:41:00;43.40;;;22.00;;
61938;SDS011;47897;50.322;18.892;2023-02-28T05:43:26;41.20;;;21.90;;
61938;SDS011;47897;50.322;18.892;2023-02-28T05:45:53;50.10;;;23.30;;
61938;SDS011;47897;50.322;18.892;2023-02-28T05:48:20;40.80;;;21.60;;
61938;SDS011;47897;50.322;18.892;2023-02-28T05:50:47;43.70;;;21.60;;
61938;SDS011;47897;50.322;18.892;2023-02-28T05:53:14;49.40;;;21.60;;
61938;SDS011;47897;50.322;18.892;2023-02-28T05:55:42;41.30;;;21.80;;
61938;SDS011;47897;50.322;18.892;2023-02-28T05:58:08;40.30;;;20.90;;
61938;SDS011;47897;50.322;18.892;2023-02-28T06:00:35;44.20;;;22.90;;
61938;SDS011;47897;50.322;18.892;2023-02-28T06:03:01;46.30;;;22.60;;
61938;SDS011;47897;50.322;18.892;2023-02-28T06:05:28;58.50;;;30.10;;
61938;SDS011;47897;50.322;18.892;2023-02-28T06:07:55;69.20;;;36.40;;
61938;SDS011;47897;50.322;18.892;2023-02-28T06:10:22;59.80;;;31.40;;
61938;SDS011;47897;50.322;18.892;2023-02-28T06:12:48;53.00;;;27.20;;
61938;SDS011;47897;50.322;18.892;2023-02-28T06:15:15;81.00;;;36.00;;
61938;SDS011;47897;50.322;18.892;2023-02-28T06:17:43;134.70;;;63.60;;
61938;SDS011;47897;50.322;18.892;2023-02-28T06:20:11;109.50;;;54.40;;
61938;SDS011;47897;50.322;18.892;2023-02-28T06:22:39;77.50;;;41.60;;
61938;SDS011;47897;50.322;18.892;2023-02-28T06:25:06;60.70;;;32.50;;
61938;SDS011;47897;50.322;18.892;2023-02-28T06:27:33;64.30;;;37.60;;
61938;SDS011;47897;50.322;18.892;2023-02-28T06:30:00;54.00;;;31.90;;
61938;SDS011;47897;50.322;18.892;2023-02-28T06:32:27;54.70;;;30.60;;
61938;SDS011;47897;50.322;18.892;2023-02-28T06:34:53;50.30;;;26.10;;
61938;SDS011;47897;50.322;18.892;2023-02-28T06:37:20;52.40;;;25.80;;
61938;SDS011;47897;50.322;18.892;2023-02-28T06:39:47;47.40;;;25.10;;
61938;SDS011;47897;50.322;18.892;2023-02-28T06:42:13;51.40;;;23.30;;
61938;SDS011;47897;50.322;18.892;2023-02-28T06:44:40;48.00;;;22.70;;
61938;SDS011;47897;50.322;18.892;2023-02-28T06:47:07;62.20;;;26.50;;
61938;SDS011;47897;50.322;18.892;2023-02-28T06:49:34;54.50;;;27.20;;
61938;SDS011;47897;50.322;18.892;2023-02-28T06:52:01;56.10;;;29.70;;
61938;SDS011;47897;50.322;18.892;2023-02-28T06:54:28;57.20;;;25.60;;
61938;SDS011;47897;50.322;18.892;2023-02-28T06:56:54;44.40;;;23.80;;
61938;SDS011;47897;50.322;18.892;2023-02-28T06:59:21;56.00;;;27.50;;
61938;SDS011;47897;50.322;18.892;2023-02-28T07:01:48;47.10;;;25.00;;
61938;SDS011;47897;50.322;18.892;2023-02-28T07:04:14;49.20;;;25.60;;
61938;SDS011;47897;50.322;18.892;2023-02-28T07:06:41;49.50;;;24.70;;
61938;SDS011;47897;50.322;18.892;2023-02-28T07:09:08;46.20;;;24.00;;
61938;SDS011;47897;50.322;18.892;2023-02-28T07:11:34;96.20;;;44.20;;
61938;SDS011;47897;50.322;18.892;2023-02-28T07:14:01;46.10;;;23.60;;
61938;SDS011;47897;50.322;18.892;2023-02-28T07:16:28;70.30;;;33.10;;
61938;SDS011;47897;50.322;18.892;2023-02-28T07:18:54;55.70;;;27.40;;
61938;SDS011;47897;50.322;18.892;2023-02-28T07:21:21;53.10;;;24.70;;
61938;SDS011;47897;50.322;18.892;2023-02-28T07:23:48;143.40;;;54.10;;
61938;SDS011;47897;50.322;18.892;2023-02-28T07:26:16;122.10;;;51.00;;
61938;SDS011;47897;50.322;18.892;2023-02-28T07:28:44;191.60;;;86.30;;
61938;SDS011;47897;50.322;18.892;2023-02-28T07:31:11;57.50;;;30.40;;
61938;SDS011;47897;50.322;18.892;2023-02-28T07:33:40;60.40;;;27.00;;
61938;SDS011;47897;50.322;18.892;2023-02-28T07:36:08;110.00;;;46.60;;
61938;SDS011;47897;50.322;18.892;2023-02-28T07:38:41;117.40;;;49.00;;
61938;SDS011;47897;50.322;18.892;2023-02-28T07:41:08;48.30;;;26.00;;
61938;SDS011;47897;50.322;18.892;2023-02-28T07:43:36;128.90;;;46.70;;
61938;SDS011;47897;50.322;18.892;2023-02-28T07:46:07;66.40;;;28.40;;
61938;SDS011;47897;50.322;18.892;2023-02-28T07:48:34;54.40;;;24.20;;
61938;SDS011;47897;50.322;18.892;2023-02-28T07:51:01;66.10;;;28.60;;
61938;SDS011;47897;50.322;18.892;2023-02-28T07:53:28;85.10;;;37.50;;
61938;SDS011;47897;50.322;18.892;2023-02-28T07:55:58;47.80;;;22.60;;
61938;SDS011;47897;50.322;18.892;2023-02-28T07:58:25;45.70;;;22.80;;
61938;SDS011;47897;50.322;18.892;2023-02-28T08:00:52;42.10;;;21.00;;
61938;SDS011;47897;50.322;18.892;2023-02-28T08:03:19;49.10;;;22.70;;
61938;SDS011;47897;50.322;18.892;2023-02-28T08:05:47;37.20;;;18.10;;
61938;SDS011;47897;50.322;18.892;2023-02-28T08:08:14;46.70;;;25.20;;
61938;SDS011;47897;50.322;18.892;2023-02-28T08:10:41;48.60;;;23.80;;
61938;SDS011;47897;50.322;18.892;2023-02-28T08:13:08;42.00;;;20.10;;
61938;SDS011;47897;50.322;18.892;2023-02-28T08:15:35;58.90;;;28.50;;
61938;SDS011;47897;50.322;18.892;2023-02-28T08:18:02;48.70;;;23.30;;
61938;SDS011;47897;50.322;18.892;2023-02-28T08:20:29;37.20;;;20.00;;
61938;SDS011;47897;50.322;18.892;2023-02-28T08:22:56;40.40;;;18.40;;
61938;SDS011;47897;50.322;18.892;2023-02-28T08:25:22;29.90;;;16.50;;
61938;SDS011;47897;50.322;18.892;2023-02-28T08:27:50;30.40;;;16.20;;
61938;SDS011;47897;50.322;18.892;2023-02-28T08:30:17;39.30;;;20.80;;
61938;SDS011;47897;50.322;18.892;2023-02-28T08:32:44;39.40;;;22.40;;
61938;SDS011;47897;50.322;18.892;2023-02-28T08:35:10;39.50;;;18.40;;
61938;SDS011;47897;50.322;18.892;2023-02-28T08:37:37;40.90;;;20.50;;
61938;SDS011;47897;50.322;18.892;2023-02-28T08:40:04;42.90;;;23.60;;
61938;SDS011;47897;50.322;18.892;2023-02-28T08:42:31;46.40;;;22.90;;
61938;SDS011;47897;50.322;18.892;2023-02-28T08:44:58;45.10;;;27.50;;
61938;SDS011;47897;50.322;18.892;2023-02-28T08:47:25;43.70;;;21.70;;
61938;SDS011;47897;50.322;18.892;2023-02-28T08:49:51;38.50;;;20.00;;
61938;SDS011;47897;50.322;18.892;2023-02-28T08:52:18;40.00;;;20.00;;
61938;SDS011;47897;50.322;18.892;2023-02-28T08:54:44;45.30;;;20.20;;
61938;SDS011;47897;50.322;18.892;2023-02-28T08:57:11;40.40;;;19.30;;
61938;SDS011;47897;50.322;18.892;2023-02-28T08:59:38;41.30;;;21.20;;
61938;SDS011;47897;50.322;18.892;2023-02-28T09:02:04;40.50;;;20.50;;
61938;SDS011;47897;50.322;18.892;2023-02-28T09:04:31;35.50;;;18.70;;
61938;SDS011;47897;50.322;18.892;2023-02-28T09:06:58;39.00;;;20.30;;
61938;SDS011;47897;50.322;18.892;2023-02-28T09:09:24;35.30;;;19.70;;
61938;SDS011;47897;50.322;18.892;2023-02-28T09:11:51;38.20;;;19.70;;
61938;SDS011;47897;50.322;18.892;2023-02-28T09:14:18;52.30;;;24.40;;
61938;SDS011;47897;50.322;18.892;2023-02-28T09:16:44;44.00;;;21.20;;
61938;SDS011;47897;50.322;18.892;2023-02-28T09:19:11;36.80;;;18.20;;
61938;SDS011;47897;50.322;18.892;2023-02-28T09:21:38;33.60;;;19.40;;
61938;SDS011;47897;50.322;18.892;2023-02-28T09:24:05;36.80;;;18.30;;
61938;SDS011;47897;50.322;18.892;2023-02-28T09:26:32;36.00;;;19.60;;
61938;SDS011;47897;50.322;18.892;2023-02-28T09:29:00;29.60;;;18.00;;
61938;SDS011;47897;50.322;18.892;2023-02-28T09:31:28;39.20;;;20.60;;
61938;SDS011;47897;50.322;18.892;2023-02-28T09:33:56;37.60;;;21.20;;
61938;SDS011;47897;50.322;18.892;2023-02-28T09:36:23;29.70;;;15.90;;
61938;SDS011;47897;50.322;18.892;2023-02-28T09:38:50;24.10;;;14.00;;
61938;SDS011;47897;50.322;18.892;2023-02-28T09:41:20;31.40;;;16.30;;
61938;SDS011;47897;50.322;18.892;2023-02-28T09:43:49;29.10;;;16.50;;
61938;SDS011;47897;50.322;18.892;2023-02-28T09:46:27;31.00;;;16.30;;
61938;SDS011;47897;50.322;18.892;2023-02-28T09:48:55;34.00;;;16.10;;
61938;SDS011;47897;50.322;18.892;2023-02-28T09:53:52;37.80;;;20.60;;
61938;SDS011;47897;50.322;18.892;2023-02-28T09:56:39;33.70;;;17.10;;
61938;SDS011;47897;50.322;18.892;2023-02-28T10:07:04;27.00;;;14.20;;
61938;SDS011;47897;50.322;18.892;2023-02-28T10:09:32;34.80;;;15.80;;
61938;SDS011;47897;50.322;18.892;2023-02-28T10:12:02;35.00;;;18.70;;
61938;SDS011;47897;50.322;18.892;2023-02-28T10:14:31;76.20;;;34.20;;
61938;SDS011;47897;50.322;18.892;2023-02-28T10:21:59;155.90;;;62.50;;
61938;SDS011;47897;50.322;18.892;2023-02-28T10:24:35;47.20;;;25.30;;
61938;SDS011;47897;50.322;18.892;2023-02-28T10:27:13;40.10;;;21.70;;
61938;SDS011;47897;50.322;18.892;2023-02-28T10:29:43;56.50;;;26.50;;
61938;SDS011;47897;50.322;18.892;2023-02-28T10:32:11;139.90;;;51.40;;
61938;SDS011;47897;50.322;18.892;2023-02-28T10:34:39;40.90;;;21.20;;
61938;SDS011;47897;50.322;18.892;2023-02-28T10:37:06;34.20;;;17.40;;
61938;SDS011;47897;50.322;18.892;2023-02-28T10:39:37;34.10;;;17.70;;
61938;SDS011;47897;50.322;18.892;2023-02-28T10:42:05;31.90;;;16.30;;
61938;SDS011;47897;50.322;18.892;2023-02-28T10:44:33;57.80;;;25.10;;
61938;SDS011;47897;50.322;18.892;2023-02-28T10:46:59;30.00;;;16.20;;
61938;SDS011;47897;50.322;18.892;2023-02-28T10:49:26;37.90;;;18.60;;
61938;SDS011;47897;50.322;18.892;2023-02-28T10:51:56;63.00;;;31.30;;
61938;SDS011;47897;50.322;18.892;2023-02-28T10:59:34;32.00;;;19.30;;
61938;SDS011;47897;50.322;18.892;2023-02-28T11:02:01;49.70;;;24.70;;
61938;SDS011;47897;50.322;18.892;2023-02-28T11:07:18;28.20;;;15.80;;
61938;SDS011;47897;50.322;18.892;2023-02-28T11:09:46;22.30;;;12.60;;
61938;SDS011;47897;50.322;18.892;2023-02-28T11:12:23;24.50;;;13.40;;
61938;SDS011;47897;50.322;18.892;2023-02-28T11:14:53;22.90;;;13.40;;
61938;SDS011;47897;50.322;18.892;2023-02-28T11:17:22;30.20;;;17.50;;
61938;SDS011;47897;50.322;18.892;2023-02-28T11:19:56;28.40;;;16.70;;
61938;SDS011;47897;50.322;18.892;2023-02-28T11:22:24;27.10;;;15.90;;
61938;SDS011;47897;50.322;18.892;2023-02-28T11:24:55;24.70;;;14.30;;
61938;SDS011;47897;50.322;18.892;2023-02-28T11:29:56;27.80;;;13.50;;
61938;SDS011;47897;50.322;18.892;2023-02-28T11:32:23;26.40;;;15.60;;
61938;SDS011;47897;50.322;18.892;2023-02-28T11:35:13;23.50;;;14.60;;
61938;SDS011;47897;50.322;18.892;2023-02-28T11:37:42;24.40;;;13.80;;
61938;SDS011;47897;50.322;18.892;2023-02-28T11:40:12;41.20;;;21.60;;
61938;SDS011;47897;50.322;18.892;2023-02-28T11:42:50;37.30;;;16.90;;
61938;SDS011;47897;50.322;18.892;2023-02-28T11:47:56;34.20;;;19.40;;
61938;SDS011;47897;50.322;18.892;2023-02-28T11:53:14;29.00;;;19.30;;
61938;SDS011;47897;50.322;18.892;2023-02-28T11:55:48;25.50;;;15.30;;
61938;SDS011;47897;50.322;18.892;2023-02-28T12:21:24;33.00;;;15.80;;
61938;SDS011;47897;50.322;18.892;2023-02-28T12:26:36;28.00;;;15.60;;
61938;SDS011;47897;50.322;18.892;2023-02-28T12:29:16;29.60;;;16.00;;
61938;SDS011;47897;50.322;18.892;2023-02-28T12:32:32;28.90;;;16.00;;
61938;SDS011;47897;50.322;18.892;2023-02-28T12:35:11;37.00;;;21.10;;
61938;SDS011;47897;50.322;18.892;2023-02-28T12:40:14;29.60;;;19.80;;
61938;SDS011;47897;50.322;18.892;2023-02-28T12:42:45;26.90;;;16.30;;
61938;SDS011;47897;50.322;18.892;2023-02-28T12:45:15;28.40;;;15.70;;
61938;SDS011;47897;50.322;18.892;2023-02-28T12:47:44;30.10;;;16.80;;
61938;SDS011;47897;50.322;18.892;2023-02-28T12:50:12;26.40;;;13.80;;
61938;SDS011;47897;50.322;18.892;2023-02-28T12:58:03;25.20;;;15.30;;
61938;SDS011;47897;50.322;18.892;2023-02-28T13:00:33;27.90;;;14.90;;
61938;SDS011;47897;50.322;18.892;2023-02-28T13:10:37;21.30;;;11.60;;
61938;SDS011;47897;50.322;18.892;2023-02-28T13:13:04;29.60;;;16.00;;
61938;SDS011;47897;50.322;18.892;2023-02-28T13:15:31;61.00;;;26.00;;
61938;SDS011;47897;50.322;18.892;2023-02-28T13:18:01;33.60;;;17.40;;
61938;SDS011;47897;50.322;18.892;2023-02-28T13:20:29;30.90;;;16.30;;
61938;SDS011;47897;50.322;18.892;2023-02-28T13:22:58;32.30;;;17.20;;
61938;SDS011;47897;50.322;18.892;2023-02-28T13:27:55;30.50;;;17.30;;
61938;SDS011;47897;50.322;18.892;2023-02-28T13:35:55;28.60;;;16.60;;
61938;SDS011;47897;50.322;18.892;2023-02-28T13:38:34;28.50;;;15.90;;
61938;SDS011;47897;50.322;18.892;2023-02-28T13:44:01;33.10;;;15.80;;
61938;SDS011;47897;50.322;18.892;2023-02-28T13:46:32;24.90;;;13.90;;
61938;SDS011;47897;50.322;18.892;2023-02-28T13:51:45;31.00;;;15.80;;
61938;SDS011;47897;50.322;18.892;2023-02-28T13:54:18;28.10;;;13.90;;
61938;SDS011;47897;50.322;18.892;2023-02-28T13:56:56;28.60;;;15.20;;
61938;SDS011;47897;50.322;18.892;2023-02-28T13:59:38;29.70;;;14.00;;
61938;SDS011;47897;50.322;18.892;2023-02-28T14:05:04;27.80;;;14.90;;
61938;SDS011;47897;50.322;18.892;2023-02-28T14:07:33;26.20;;;13.90;;
61938;SDS011;47897;50.322;18.892;2023-02-28T14:10:04;28.80;;;14.60;;
61938;SDS011;47897;50.322;18.892;2023-02-28T14:16:20;34.10;;;16.00;;
61938;SDS011;47897;50.322;18.892;2023-02-28T14:20:47;30.60;;;15.60;;
61938;SDS011;47897;50.322;18.892;2023-02-28T14:26:00;27.30;;;14.10;;
61938;SDS011;47897;50.322;18.892;2023-02-28T14:28:45;30.60;;;16.00;;
61938;SDS011;47897;50.322;18.892;2023-02-28T14:31:36;33.00;;;19.10;;
61938;SDS011;47897;50.322;18.892;2023-02-28T14:36:40;24.00;;;13.50;;
61938;SDS011;47897;50.322;18.892;2023-02-28T14:39:18;25.80;;;15.10;;
61938;SDS011;47897;50.322;18.892;2023-02-28T14:41:46;24.50;;;13.60;;
61938;SDS011;47897;50.322;18.892;2023-02-28T14:46:43;31.40;;;15.30;;
61938;SDS011;47897;50.322;18.892;2023-02-28T14:49:32;33.40;;;17.90;;
61938;SDS011;47897;50.322;18.892;2023-02-28T14:52:01;27.70;;;16.10;;
61938;SDS011;47897;50.322;18.892;2023-02-28T14:54:29;33.80;;;17.20;;
61938;SDS011;47897;50.322;18.892;2023-02-28T14:56:55;31.10;;;15.50;;
61938;SDS011;47897;50.322;18.892;2023-02-28T14:59:23;34.50;;;17.00;;
61938;SDS011;47897;50.322;18.892;2023-02-28T15:01:50;162.10;;;52.10;;
61938;SDS011;47897;50.322;18.892;2023-02-28T15:04:26;210.10;;;71.10;;
61938;SDS011;47897;50.322;18.892;2023-02-28T15:07:09;43.50;;;22.30;;
61938;SDS011;47897;50.322;18.892;2023-02-28T15:09:37;38.80;;;17.60;;
61938;SDS011;47897;50.322;18.892;2023-02-28T15:12:03;33.50;;;17.70;;
61938;SDS011;47897;50.322;18.892;2023-02-28T15:14:30;31.40;;;17.50;;
61938;SDS011;47897;50.322;18.892;2023-02-28T15:16:58;33.80;;;18.00;;
61938;SDS011;47897;50.322;18.892;2023-02-28T15:19:27;32.40;;;18.90;;
61938;SDS011;47897;50.322;18.892;2023-02-28T15:22:06;29.20;;;15.80;;
61938;SDS011;47897;50.322;18.892;2023-02-28T15:24:38;32.30;;;15.50;;
61938;SDS011;47897;50.322;18.892;2023-02-28T15:29:34;32.10;;;15.40;;
61938;SDS011;47897;50.322;18.892;2023-02-28T15:32:04;33.30;;;17.20;;
61938;SDS011;47897;50.322;18.892;2023-02-28T15:34:43;33.70;;;16.20;;
61938;SDS011;47897;50.322;18.892;2023-02-28T15:42:31;29.50;;;17.50;;
61938;SDS011;47897;50.322;18.892;2023-02-28T15:44:58;42.40;;;17.40;;
61938;SDS011;47897;50.322;18.892;2023-02-28T15:47:27;39.50;;;20.00;;
61938;SDS011;47897;50.322;18.892;2023-02-28T15:49:56;43.30;;;21.70;;
61938;SDS011;47897;50.322;18.892;2023-02-28T15:52:28;44.00;;;23.20;;
61938;SDS011;47897;50.322;18.892;2023-02-28T15:54:58;65.00;;;32.40;;
61938;SDS011;47897;50.322;18.892;2023-02-28T15:57:25;73.40;;;32.70;;
61938;SDS011;47897;50.322;18.892;2023-02-28T15:59:54;87.00;;;39.90;;
61938;SDS011;47897;50.322;18.892;2023-02-28T16:02:22;68.10;;;31.60;;
61938;SDS011;47897;50.322;18.892;2023-02-28T16:04:56;70.60;;;30.20;;
61938;SDS011;47897;50.322;18.892;2023-02-28T16:07:23;69.00;;;29.80;;
61938;SDS011;47897;50.322;18.892;2023-02-28T16:09:51;59.30;;;29.40;;
61938;SDS011;47897;50.322;18.892;2023-02-28T16:12:18;56.60;;;25.80;;
61938;SDS011;47897;50.322;18.892;2023-02-28T16:14:45;55.50;;;24.80;;
61938;SDS011;47897;50.322;18.892;2023-02-28T16:17:23;55.80;;;26.90;;
61938;SDS011;47897;50.322;18.892;2023-02-28T16:19:51;66.00;;;30.60;;
61938;SDS011;47897;50.322;18.892;2023-02-28T16:22:18;55.20;;;29.60;;
61938;SDS011;47897;50.322;18.892;2023-02-28T16:24:44;51.60;;;25.90;;
61938;SDS011;47897;50.322;18.892;2023-02-28T16:27:16;50.00;;;25.90;;
61938;SDS011;47897;50.322;18.892;2023-02-28T16:29:44;69.40;;;30.50;;
61938;SDS011;47897;50.322;18.892;2023-02-28T16:32:12;74.10;;;33.50;;
61938;SDS011;47897;50.322;18.892;2023-02-28T16:34:40;74.40;;;33.10;;
61938;SDS011;47897;50.322;18.892;2023-02-28T16:37:10;55.30;;;28.30;;
61938;SDS011;47897;50.322;18.892;2023-02-28T16:39:37;54.90;;;25.80;;
61938;SDS011;47897;50.322;18.892;2023-02-28T16:42:04;49.10;;;24.40;;
61938;SDS011;47897;50.322;18.892;2023-02-28T16:44:34;66.00;;;29.20;;